createdAt,value
2018-07-04T00:00:03.302Z,14.39
2018-07-04T00:01:03.219Z,14.29
2018-07-04T00:02:03.150Z,14.29
2018-07-04T00:03:03.068Z,14.28
2018-07-04T00:04:02.999Z,14.32
2018-07-04T00:05:02.918Z,14.36
2018-07-04T00:06:02.853Z,14.38
2018-07-04T00:07:02.767Z,14.42
2018-07-04T00:08:02.697Z,14.46
2018-07-04T00:09:02.617Z,14.35
2018-07-04T00:10:02.552Z,14.36
2018-07-04T00:11:02.471Z,14.52
2018-07-04T00:12:02.402Z,14.38
2018-07-04T00:13:02.328Z,14.29
2018-07-04T00:14:02.254Z,14.14
2018-07-04T00:15:02.171Z,14.14
2018-07-04T00:16:02.103Z,14.14
2018-07-04T00:17:02.022Z,14.14
2018-07-04T00:18:01.955Z,14.19
2018-07-04T00:19:01.890Z,14.29
2018-07-04T00:20:01.809Z,14.27
2018-07-04T00:21:01.723Z,14.34
2018-07-04T00:22:01.652Z,14.39
2018-07-04T00:23:01.606Z,14.42
2018-07-04T00:24:01.505Z,14.35
2018-07-04T00:25:01.421Z,14.41
2018-07-04T00:26:01.357Z,14.35
2018-07-04T00:27:01.294Z,14.46
2018-07-04T00:28:01.207Z,14.36
2018-07-04T00:29:01.124Z,14.46
2018-07-04T00:30:01.058Z,14.35
2018-07-04T00:31:00.973Z,14.44
2018-07-04T00:32:00.907Z,14.38
2018-07-04T00:33:00.822Z,14.54
2018-07-04T00:34:00.758Z,14.57
2018-07-04T00:35:00.674Z,14.56
2018-07-04T00:36:00.608Z,14.64
2018-07-04T00:37:00.525Z,14.61
2018-07-04T00:38:00.457Z,14.60
2018-07-04T00:39:00.379Z,14.54
2018-07-04T00:40:00.310Z,14.47
2018-07-04T00:41:00.229Z,14.38
2018-07-04T00:42:00.159Z,14.52
2018-07-04T00:43:00.077Z,14.44
2018-07-04T00:44:00.014Z,14.34
2018-07-04T00:44:59.928Z,14.47
2018-07-04T00:45:59.860Z,14.42
2018-07-04T00:46:59.778Z,14.36
2018-07-04T00:47:59.709Z,14.46
2018-07-04T00:48:59.628Z,14.46
2018-07-04T00:49:59.566Z,14.46
2018-07-04T00:50:59.479Z,14.38
2018-07-04T00:51:59.414Z,14.34
2018-07-04T00:52:59.325Z,14.35
2018-07-04T00:53:59.259Z,14.35
2018-07-04T00:54:59.176Z,14.27
2018-07-04T00:55:59.107Z,14.17
2018-07-04T00:56:59.028Z,14.14
2018-07-04T00:57:58.961Z,14.11
2018-07-04T00:58:58.884Z,14.05
2018-07-04T00:59:58.813Z,14.03
2018-07-04T01:00:59.582Z,13.99
2018-07-04T01:01:58.669Z,14.02
2018-07-04T01:02:58.582Z,13.92
2018-07-04T01:03:58.511Z,13.92
2018-07-04T01:04:58.428Z,14.07
2018-07-04T01:05:58.364Z,14.02
2018-07-04T01:06:58.278Z,14.03
2018-07-04T01:07:58.211Z,14.02
2018-07-04T01:08:58.128Z,14.03
2018-07-04T01:09:58.064Z,13.99
2018-07-04T01:10:57.982Z,14.05
2018-07-04T01:11:57.913Z,14.10
2018-07-04T01:12:57.832Z,14.13
2018-07-04T01:13:58.763Z,14.02
2018-07-04T01:14:57.679Z,14.03
2018-07-04T01:15:57.615Z,14.23
2018-07-04T01:16:57.528Z,14.19
2018-07-04T01:17:57.460Z,14.16
2018-07-04T01:18:57.381Z,14.21
2018-07-04T01:19:57.312Z,14.17
2018-07-04T01:20:57.229Z,14.11
2018-07-04T01:21:57.160Z,14.27
2018-07-04T01:22:57.079Z,14.29
2018-07-04T01:23:57.014Z,14.20
2018-07-04T01:24:56.931Z,14.14
2018-07-04T01:25:56.862Z,13.95
2018-07-04T01:26:56.777Z,13.98
2018-07-04T01:27:56.717Z,13.80
2018-07-04T01:28:56.631Z,13.78
2018-07-04T01:29:56.566Z,13.77
2018-07-04T01:30:56.475Z,13.77
2018-07-04T01:31:56.411Z,13.56
2018-07-04T01:32:56.328Z,13.66
2018-07-04T01:33:56.263Z,13.45
2018-07-04T01:34:56.178Z,13.55
2018-07-04T01:35:56.110Z,13.50
2018-07-04T01:36:56.028Z,13.47
2018-07-04T01:37:55.961Z,13.52
2018-07-04T01:38:55.875Z,13.58
2018-07-04T01:39:55.813Z,13.65
2018-07-04T01:40:55.729Z,13.59
2018-07-04T01:41:55.658Z,13.65
2018-07-04T01:42:55.575Z,13.58
2018-07-04T01:43:55.509Z,13.66
2018-07-04T01:44:55.428Z,13.58
2018-07-04T01:45:55.360Z,13.66
2018-07-04T01:46:55.274Z,13.58
2018-07-04T01:47:55.211Z,13.61
2018-07-04T01:48:55.125Z,13.58
2018-07-04T01:49:55.057Z,13.59
2018-07-04T01:50:54.973Z,13.65
2018-07-04T01:51:54.906Z,13.66
2018-07-04T01:52:54.829Z,13.66
2018-07-04T01:53:54.754Z,13.65
2018-07-04T01:54:54.674Z,13.48
2018-07-04T01:55:54.606Z,13.48
2018-07-04T01:56:54.523Z,13.50
2018-07-04T01:57:54.463Z,13.45
2018-07-04T01:58:54.374Z,13.47
2018-07-04T01:59:54.305Z,13.38
2018-07-04T02:00:54.224Z,13.41
2018-07-04T02:01:54.155Z,13.43
2018-07-04T02:02:54.071Z,13.47
2018-07-04T02:03:54.005Z,13.45
2018-07-04T02:04:53.922Z,13.45
2018-07-04T02:05:53.854Z,13.61
2018-07-04T02:06:53.771Z,13.65
2018-07-04T02:07:53.705Z,13.76
2018-07-04T02:08:53.621Z,13.65
2018-07-04T02:09:53.555Z,13.78
2018-07-04T02:10:53.469Z,13.83
2018-07-04T02:11:53.398Z,13.83
2018-07-04T02:12:53.318Z,13.98
2018-07-04T02:13:53.249Z,13.98
2018-07-04T02:14:53.167Z,13.89
2018-07-04T02:15:53.101Z,13.95
2018-07-04T02:16:53.016Z,13.94
2018-07-04T02:17:52.952Z,13.95
2018-07-04T02:18:52.873Z,13.94
2018-07-04T02:19:52.800Z,13.89
2018-07-04T02:20:52.716Z,13.96
2018-07-04T02:21:52.651Z,13.94
2018-07-04T02:22:52.565Z,13.96
2018-07-04T02:23:52.497Z,13.92
2018-07-04T02:24:52.416Z,13.91
2018-07-04T02:25:52.349Z,13.86
2018-07-04T02:26:52.264Z,13.87
2018-07-04T02:27:52.197Z,13.76
2018-07-04T02:28:52.112Z,13.63
2018-07-04T02:29:52.051Z,13.70
2018-07-04T02:30:51.976Z,13.61
2018-07-04T02:31:51.893Z,13.50
2018-07-04T02:32:51.811Z,13.41
2018-07-04T02:33:51.745Z,13.36
2018-07-04T02:34:51.662Z,13.37
2018-07-04T02:35:51.595Z,13.36
2018-07-04T02:36:51.508Z,13.28
2018-07-04T02:37:51.444Z,13.25
2018-07-04T02:38:51.359Z,13.27
2018-07-04T02:39:51.288Z,13.27
2018-07-04T02:40:51.212Z,13.27
2018-07-04T02:41:51.141Z,13.33
2018-07-04T02:42:51.058Z,13.36
2018-07-04T02:43:50.988Z,13.40
2018-07-04T02:44:50.915Z,13.41
2018-07-04T02:45:50.843Z,13.44
2018-07-04T02:46:50.753Z,13.40
2018-07-04T02:47:50.688Z,13.38
2018-07-04T02:48:50.605Z,13.28
2018-07-04T02:49:50.536Z,13.28
2018-07-04T02:50:50.494Z,13.28
2018-07-04T02:51:50.381Z,13.28
2018-07-04T02:52:50.305Z,13.11
2018-07-04T02:53:50.233Z,13.19
2018-07-04T02:54:50.153Z,13.10
2018-07-04T02:55:50.082Z,13.14
2018-07-04T02:56:49.999Z,13.18
2018-07-04T02:57:49.934Z,13.15
2018-07-04T02:58:49.851Z,13.14
2018-07-04T02:59:49.781Z,13.11
2018-07-04T03:00:49.702Z,13.14
2018-07-04T03:01:49.632Z,13.18
2018-07-04T03:02:49.545Z,13.11
2018-07-04T03:03:49.476Z,13.10
2018-07-04T03:04:49.399Z,13.15
2018-07-04T03:05:49.328Z,13.00
2018-07-04T03:06:49.246Z,12.86
2018-07-04T03:07:49.181Z,12.84
2018-07-04T03:08:49.098Z,12.81
2018-07-04T03:09:49.026Z,12.74
2018-07-04T03:10:48.940Z,12.79
2018-07-04T03:11:48.873Z,12.84
2018-07-04T03:12:48.793Z,12.86
2018-07-04T03:13:48.727Z,12.91
2018-07-04T03:14:48.636Z,13.00
2018-07-04T03:15:48.572Z,13.03
2018-07-04T03:16:48.491Z,13.06
2018-07-04T03:17:48.422Z,13.09
2018-07-04T03:18:48.337Z,13.06
2018-07-04T03:19:48.276Z,13.18
2018-07-04T03:20:48.187Z,13.15
2018-07-04T03:21:48.119Z,13.15
2018-07-04T03:22:48.032Z,13.18
2018-07-04T03:23:47.966Z,13.14
2018-07-04T03:24:47.883Z,13.10
2018-07-04T03:25:47.814Z,13.11
2018-07-04T03:26:47.734Z,13.17
2018-07-04T03:27:47.669Z,13.22
2018-07-04T03:28:47.579Z,13.18
2018-07-04T03:29:47.511Z,13.21
2018-07-04T03:30:47.428Z,13.15
2018-07-04T03:31:47.370Z,13.14
2018-07-04T03:32:47.276Z,13.06
2018-07-04T03:33:47.210Z,13.03
2018-07-04T03:34:47.125Z,13.10
2018-07-04T03:35:47.055Z,12.97
2018-07-04T03:36:46.975Z,12.97
2018-07-04T03:37:46.907Z,12.99
2018-07-04T03:38:46.822Z,13.00
2018-07-04T03:39:46.754Z,12.99
2018-07-04T03:40:46.673Z,12.89
2018-07-04T03:41:46.603Z,13.02
2018-07-04T03:42:46.519Z,12.94
2018-07-04T03:43:46.450Z,13.07
2018-07-04T03:44:46.367Z,13.03
2018-07-04T03:45:46.302Z,12.97
2018-07-04T03:46:46.216Z,13.02
2018-07-04T03:47:46.149Z,12.97
2018-07-04T03:48:46.064Z,12.97
2018-07-04T03:49:46.029Z,12.97
2018-07-04T03:50:45.915Z,13.02
2018-07-04T03:51:45.844Z,13.02
2018-07-04T03:52:45.760Z,12.99
2018-07-04T03:53:45.694Z,12.94
2018-07-04T03:54:45.606Z,12.97
2018-07-04T03:55:45.543Z,12.97
2018-07-04T03:56:45.460Z,12.99
2018-07-04T03:57:45.391Z,13.00
2018-07-04T03:58:45.306Z,13.00
2018-07-04T03:59:45.240Z,13.15
2018-07-04T04:00:45.156Z,13.15
2018-07-04T04:01:46.089Z,13.04
2018-07-04T04:02:45.005Z,12.99
2018-07-04T04:03:44.936Z,13.04
2018-07-04T04:04:44.853Z,13.04
2018-07-04T04:05:44.784Z,13.14
2018-07-04T04:06:44.705Z,13.15
2018-07-04T04:07:44.632Z,13.06
2018-07-04T04:08:44.545Z,13.06
2018-07-04T04:09:44.480Z,13.04
2018-07-04T04:10:44.400Z,12.99
2018-07-04T04:11:44.330Z,13.03
2018-07-04T04:12:44.245Z,13.02
2018-07-04T04:13:44.181Z,13.09
2018-07-04T04:14:44.093Z,12.97
2018-07-04T04:15:44.022Z,12.96
2018-07-04T04:16:43.942Z,13.03
2018-07-04T04:17:43.874Z,12.97
2018-07-04T04:18:43.786Z,12.92
2018-07-04T04:19:43.733Z,13.06
2018-07-04T04:20:43.640Z,13.11
2018-07-04T04:21:43.569Z,13.11
2018-07-04T04:22:43.486Z,13.22
2018-07-04T04:23:43.422Z,13.25
2018-07-04T04:24:43.347Z,13.36
2018-07-04T04:25:43.268Z,13.43
2018-07-04T04:26:43.184Z,13.50
2018-07-04T04:27:43.112Z,13.62
2018-07-04T04:28:43.029Z,13.58
2018-07-04T04:29:42.964Z,13.65
2018-07-04T04:30:42.881Z,13.73
2018-07-04T04:31:42.811Z,13.84
2018-07-04T04:32:42.737Z,13.92
2018-07-04T04:33:42.662Z,13.96
2018-07-04T04:34:42.577Z,13.92
2018-07-04T04:35:42.509Z,13.91
2018-07-04T04:36:42.427Z,13.99
2018-07-04T04:37:42.361Z,13.98
2018-07-04T04:38:42.281Z,14.03
2018-07-04T04:39:42.207Z,14.10
2018-07-04T04:40:42.127Z,13.98
2018-07-04T04:41:42.057Z,14.14
2018-07-04T04:42:41.977Z,14.13
2018-07-04T04:43:41.904Z,14.16
2018-07-04T04:44:41.816Z,14.21
2018-07-04T04:45:41.754Z,14.24
2018-07-04T04:46:41.670Z,14.32
2018-07-04T04:47:41.605Z,14.44
2018-07-04T04:48:41.519Z,14.41
2018-07-04T04:49:41.452Z,14.32
2018-07-04T04:50:41.367Z,14.34
2018-07-04T04:51:41.300Z,14.44
2018-07-04T04:52:41.217Z,14.42
2018-07-04T04:53:41.146Z,14.53
2018-07-04T04:54:41.090Z,14.50
2018-07-04T04:55:41.001Z,14.60
2018-07-04T04:56:40.916Z,14.57
2018-07-04T04:57:40.849Z,14.61
2018-07-04T04:58:40.771Z,14.65
2018-07-04T04:59:40.699Z,14.61
2018-07-04T05:00:40.614Z,14.67
2018-07-04T05:01:40.547Z,14.69
2018-07-04T05:02:40.463Z,14.74
2018-07-04T05:03:40.394Z,14.72
2018-07-04T05:04:40.314Z,14.79
2018-07-04T05:05:40.244Z,14.74
2018-07-04T05:06:40.160Z,14.87
2018-07-04T05:07:40.101Z,14.83
2018-07-04T05:08:40.010Z,14.94
2018-07-04T05:09:39.945Z,14.93
2018-07-04T05:10:39.861Z,15.02
2018-07-04T05:11:39.794Z,15.02
2018-07-04T05:12:39.709Z,15.13
2018-07-04T05:13:39.639Z,15.20
2018-07-04T05:14:39.561Z,15.13
2018-07-04T05:15:39.503Z,15.24
2018-07-04T05:16:39.407Z,15.27
2018-07-04T05:17:39.342Z,15.33
2018-07-04T05:18:39.272Z,15.42
2018-07-04T05:19:39.192Z,15.51
2018-07-04T05:20:39.111Z,15.51
2018-07-04T05:21:39.038Z,15.52
2018-07-04T05:22:38.965Z,15.46
2018-07-04T05:23:38.892Z,15.57
2018-07-04T05:24:38.810Z,15.61
2018-07-04T05:25:38.743Z,15.60
2018-07-04T05:26:38.659Z,15.70
2018-07-04T05:27:38.593Z,15.66
2018-07-04T05:28:38.509Z,15.78
2018-07-04T05:29:38.442Z,15.82
2018-07-04T05:30:38.351Z,15.91
2018-07-04T05:31:38.292Z,16.07
2018-07-04T05:32:38.208Z,16.00
2018-07-04T05:33:38.143Z,16.14
2018-07-04T05:34:38.059Z,16.16
2018-07-04T05:35:37.994Z,16.23
2018-07-04T05:36:37.909Z,16.27
2018-07-04T05:37:37.842Z,16.25
2018-07-04T05:38:37.997Z,16.37
2018-07-04T05:39:37.694Z,16.38
2018-07-04T05:40:37.613Z,16.41
2018-07-04T05:41:37.545Z,16.48
2018-07-04T05:42:37.462Z,16.41
2018-07-04T05:43:37.393Z,16.57
2018-07-04T05:44:37.312Z,16.53
2018-07-04T05:45:37.239Z,16.67
2018-07-04T05:46:37.251Z,16.65
2018-07-04T05:47:37.088Z,16.78
2018-07-04T05:48:37.063Z,16.82
2018-07-04T05:49:36.944Z,16.92
2018-07-04T05:50:36.970Z,16.90
2018-07-04T05:51:36.791Z,16.95
2018-07-04T05:52:36.777Z,16.93
2018-07-04T05:53:36.643Z,17.10
2018-07-04T05:54:36.598Z,17.15
2018-07-04T05:55:36.497Z,17.21
2018-07-04T05:56:36.463Z,17.17
2018-07-04T05:57:36.346Z,17.28
2018-07-04T05:58:36.312Z,17.33
2018-07-04T05:59:36.196Z,17.28
2018-07-04T06:00:36.221Z,17.57
2018-07-04T06:01:36.049Z,17.53
2018-07-04T06:02:36.036Z,17.66
2018-07-04T06:03:35.900Z,17.66
2018-07-04T06:04:35.941Z,17.76
2018-07-04T06:05:35.754Z,17.88
2018-07-04T06:06:35.750Z,18.00
2018-07-04T06:07:35.606Z,18.06
2018-07-04T06:08:35.557Z,18.21
2018-07-04T06:09:35.459Z,18.21
2018-07-04T06:10:35.470Z,18.32
2018-07-04T06:11:35.309Z,18.43
2018-07-04T06:12:35.237Z,18.50
2018-07-04T06:13:35.185Z,18.62
2018-07-04T06:14:35.088Z,18.62
2018-07-04T06:15:35.094Z,18.84
2018-07-04T06:16:34.942Z,18.84
2018-07-04T06:17:34.931Z,18.94
2018-07-04T06:18:34.793Z,18.98
2018-07-04T06:19:34.817Z,19.01
2018-07-04T06:20:34.646Z,18.97
2018-07-04T06:21:34.623Z,19.01
2018-07-04T06:22:34.500Z,19.02
2018-07-04T06:23:34.536Z,19.24
2018-07-04T06:24:34.358Z,19.27
2018-07-04T06:25:34.345Z,19.27
2018-07-04T06:26:34.211Z,19.32
2018-07-04T06:27:34.259Z,19.35
2018-07-04T06:28:34.061Z,19.38
2018-07-04T06:29:34.065Z,19.51
2018-07-04T06:30:33.915Z,19.55
2018-07-04T06:31:33.878Z,19.53
2018-07-04T06:32:33.771Z,19.57
2018-07-04T06:33:33.787Z,19.63
2018-07-04T06:34:33.624Z,19.65
2018-07-04T06:35:33.550Z,19.75
2018-07-04T06:36:33.500Z,19.75
2018-07-04T06:37:33.410Z,19.83
2018-07-04T06:38:33.409Z,19.86
2018-07-04T06:39:33.259Z,19.97
2018-07-04T06:40:33.220Z,20.00
2018-07-04T06:41:33.114Z,19.97
2018-07-04T06:42:33.042Z,20.08
2018-07-04T06:43:33.039Z,20.06
2018-07-04T06:44:32.897Z,20.09
2018-07-04T06:45:32.845Z,20.15
2018-07-04T06:46:32.749Z,20.16
2018-07-04T06:47:32.709Z,20.09
2018-07-04T06:48:32.611Z,20.24
2018-07-04T06:49:32.622Z,20.28
2018-07-04T06:50:32.462Z,20.28
2018-07-04T06:51:32.431Z,20.34
2018-07-04T06:52:32.318Z,20.35
2018-07-04T06:53:33.366Z,20.38
2018-07-04T06:54:32.239Z,20.40
2018-07-04T06:55:32.148Z,20.50
2018-07-04T06:56:32.024Z,20.65
2018-07-04T06:57:32.065Z,20.68
2018-07-04T06:58:31.882Z,20.56
2018-07-04T06:59:31.865Z,20.66
2018-07-04T07:00:31.737Z,20.69
2018-07-04T07:01:31.783Z,20.62
2018-07-04T07:02:31.592Z,20.68
2018-07-04T07:03:31.589Z,20.79
2018-07-04T07:04:31.457Z,20.79
2018-07-04T07:05:31.398Z,20.87
2018-07-04T07:06:31.307Z,20.90
2018-07-04T07:07:31.308Z,20.90
2018-07-04T07:08:31.196Z,21.01
2018-07-04T07:09:31.116Z,21.05
2018-07-04T07:10:31.019Z,21.11
2018-07-04T07:11:31.023Z,21.09
2018-07-04T07:12:30.876Z,21.14
2018-07-04T07:13:30.837Z,21.26
2018-07-04T07:14:30.794Z,21.27
2018-07-04T07:15:30.746Z,21.29
2018-07-04T07:16:30.589Z,21.31
2018-07-04T07:17:30.555Z,21.42
2018-07-04T07:18:30.443Z,21.44
2018-07-04T07:19:30.465Z,21.49
2018-07-04T07:20:30.300Z,21.59
2018-07-04T07:21:30.277Z,21.60
2018-07-04T07:22:30.159Z,21.67
2018-07-04T07:23:30.185Z,21.78
2018-07-04T07:24:30.016Z,21.82
2018-07-04T07:25:29.994Z,21.81
2018-07-04T07:26:29.875Z,21.79
2018-07-04T07:27:29.909Z,21.86
2018-07-04T07:28:29.728Z,21.91
2018-07-04T07:29:29.713Z,21.97
2018-07-04T07:30:29.591Z,21.98
2018-07-04T07:31:29.625Z,22.01
2018-07-04T07:32:29.446Z,21.98
2018-07-04T07:33:29.450Z,21.97
2018-07-04T07:34:29.301Z,22.07
2018-07-04T07:35:29.347Z,22.08
2018-07-04T07:36:29.162Z,22.13
2018-07-04T07:37:29.152Z,22.12
2018-07-04T07:38:29.016Z,22.16
2018-07-04T07:39:29.063Z,22.15
2018-07-04T07:40:28.881Z,22.22
2018-07-04T07:41:28.871Z,22.31
2018-07-04T07:42:28.736Z,22.26
2018-07-04T07:43:28.788Z,22.39
2018-07-04T07:44:28.597Z,22.38
2018-07-04T07:45:28.591Z,22.44
2018-07-04T07:46:28.454Z,22.49
2018-07-04T07:47:28.404Z,22.56
2018-07-04T07:48:28.316Z,22.62
2018-07-04T07:49:28.311Z,22.65
2018-07-04T07:50:28.172Z,22.60
2018-07-04T07:51:28.122Z,22.75
2018-07-04T07:52:28.031Z,22.77
2018-07-04T07:53:28.031Z,22.81
2018-07-04T07:54:27.935Z,22.74
2018-07-04T07:55:27.839Z,22.78
2018-07-04T07:56:27.750Z,22.83
2018-07-04T07:57:27.749Z,22.84
2018-07-04T07:58:27.609Z,22.94
2018-07-04T07:59:27.558Z,22.93
2018-07-04T08:00:27.469Z,23.04
2018-07-04T08:01:27.471Z,23.07
2018-07-04T08:02:27.327Z,22.97
2018-07-04T08:03:27.281Z,22.92
2018-07-04T08:04:27.189Z,23.02
2018-07-04T08:05:27.188Z,23.00
2018-07-04T08:06:27.051Z,22.99
2018-07-04T08:07:26.998Z,23.00
2018-07-04T08:08:26.909Z,23.05
2018-07-04T08:09:26.909Z,23.07
2018-07-04T08:10:26.769Z,23.15
2018-07-04T08:11:26.716Z,23.17
2018-07-04T08:12:26.629Z,23.15
2018-07-04T08:13:26.628Z,23.11
2018-07-04T08:14:26.487Z,23.20
2018-07-04T08:15:26.438Z,23.14
2018-07-04T08:16:26.352Z,23.24
2018-07-04T08:17:26.349Z,23.23
2018-07-04T08:18:26.207Z,23.31
2018-07-04T08:19:26.148Z,23.22
2018-07-04T08:20:26.072Z,23.29
2018-07-04T08:21:26.065Z,23.34
2018-07-04T08:22:25.929Z,23.33
2018-07-04T08:23:25.979Z,23.40
2018-07-04T08:24:25.791Z,23.42
2018-07-04T08:25:25.789Z,23.45
2018-07-04T08:26:25.729Z,23.49
2018-07-04T08:27:25.697Z,23.55
2018-07-04T08:28:25.513Z,23.55
2018-07-04T08:29:25.511Z,23.58
2018-07-04T08:30:25.375Z,23.61
2018-07-04T08:31:25.416Z,23.68
2018-07-04T08:32:25.237Z,23.70
2018-07-04T08:33:25.271Z,23.70
2018-07-04T08:34:25.095Z,23.74
2018-07-04T08:35:25.137Z,23.83
2018-07-04T08:36:24.958Z,23.89
2018-07-04T08:37:24.948Z,23.98
2018-07-04T08:38:24.818Z,23.95
2018-07-04T08:39:24.852Z,24.05
2018-07-04T08:40:24.681Z,24.08
2018-07-04T08:41:24.664Z,24.22
2018-07-04T08:42:24.540Z,24.44
2018-07-04T08:43:24.576Z,24.45
2018-07-04T08:44:24.406Z,24.64
2018-07-04T08:45:24.386Z,24.93
2018-07-04T08:46:24.266Z,25.05
2018-07-04T08:47:24.296Z,25.10
2018-07-04T08:48:24.130Z,25.12
2018-07-04T08:49:24.104Z,25.28
2018-07-04T08:50:23.993Z,25.45
2018-07-04T08:51:24.015Z,25.45
2018-07-04T08:52:23.855Z,25.45
2018-07-04T08:53:23.823Z,25.42
2018-07-04T08:54:23.718Z,25.45
2018-07-04T08:55:23.733Z,25.47
2018-07-04T08:56:23.583Z,25.59
2018-07-04T08:57:23.543Z,25.65
2018-07-04T08:58:23.506Z,25.70
2018-07-04T08:59:23.454Z,25.79
2018-07-04T09:00:23.309Z,25.89
2018-07-04T09:01:23.262Z,25.93
2018-07-04T09:02:23.171Z,26.08
2018-07-04T09:03:23.175Z,26.08
2018-07-04T09:04:23.038Z,26.23
2018-07-04T09:05:23.083Z,26.32
2018-07-04T09:06:22.902Z,26.34
2018-07-04T09:07:22.890Z,26.45
2018-07-04T09:08:22.767Z,26.60
2018-07-04T09:09:22.804Z,26.62
2018-07-04T09:10:22.631Z,26.79
2018-07-04T09:11:22.615Z,26.83
2018-07-04T09:12:22.494Z,26.94
2018-07-04T09:13:22.525Z,26.90
2018-07-04T09:14:22.376Z,26.92
2018-07-04T09:15:23.185Z,27.01
2018-07-04T09:16:22.239Z,27.07
2018-07-04T09:17:22.247Z,27.04
2018-07-04T09:18:22.096Z,27.08
2018-07-04T09:19:22.203Z,27.05
2018-07-04T09:20:21.977Z,27.08
2018-07-04T09:21:21.963Z,27.16
2018-07-04T09:22:21.827Z,27.09
2018-07-04T09:23:21.884Z,27.09
2018-07-04T09:24:21.696Z,27.08
2018-07-04T09:25:21.683Z,27.01
2018-07-04T09:26:21.558Z,27.01
2018-07-04T09:27:21.594Z,27.08
2018-07-04T09:28:21.427Z,27.07
2018-07-04T09:29:21.402Z,27.05
2018-07-04T09:30:21.294Z,26.98
2018-07-04T09:31:21.314Z,27.12
2018-07-04T09:32:21.164Z,27.13
2018-07-04T09:33:21.121Z,27.17
2018-07-04T09:34:21.029Z,27.20
2018-07-04T09:35:21.033Z,27.23
2018-07-04T09:36:20.895Z,27.32
2018-07-04T09:37:20.944Z,27.31
2018-07-04T09:38:20.795Z,27.31
2018-07-04T09:39:20.755Z,27.42
2018-07-04T09:40:20.629Z,27.38
2018-07-04T09:41:20.668Z,27.54
2018-07-04T09:42:20.500Z,27.53
2018-07-04T09:43:20.474Z,27.65
2018-07-04T09:44:20.367Z,27.67
2018-07-04T09:45:20.384Z,27.69
2018-07-04T09:46:20.231Z,27.73
2018-07-04T09:47:20.193Z,27.83
2018-07-04T09:48:20.109Z,27.83
2018-07-04T09:49:20.104Z,27.91
2018-07-04T09:50:19.970Z,28.02
2018-07-04T09:51:20.016Z,27.98
2018-07-04T09:52:19.841Z,28.04
2018-07-04T09:53:19.826Z,28.13
2018-07-04T09:54:19.702Z,28.19
2018-07-04T09:55:19.735Z,28.19
2018-07-04T09:56:19.572Z,28.24
2018-07-04T09:57:19.537Z,28.25
2018-07-04T09:58:19.443Z,28.39
2018-07-04T09:59:19.452Z,28.43
2018-07-04T10:00:19.314Z,28.29
2018-07-04T10:01:19.262Z,28.32
2018-07-04T10:02:19.179Z,28.34
2018-07-04T10:03:19.172Z,28.39
2018-07-04T10:04:19.048Z,28.38
2018-07-04T10:05:19.085Z,28.38
2018-07-04T10:06:18.920Z,28.44
2018-07-04T10:07:18.893Z,28.49
2018-07-04T10:08:18.788Z,28.57
2018-07-04T10:09:18.803Z,28.61
2018-07-04T10:10:18.661Z,28.57
2018-07-04T10:11:18.612Z,28.57
2018-07-04T10:12:18.527Z,28.63
2018-07-04T10:13:18.526Z,28.68
2018-07-04T10:14:18.393Z,28.62
2018-07-04T10:15:18.434Z,28.65
2018-07-04T10:16:18.265Z,28.59
2018-07-04T10:17:18.243Z,28.65
2018-07-04T10:18:18.185Z,28.69
2018-07-04T10:19:18.155Z,28.68
2018-07-04T10:20:18.039Z,28.73
2018-07-04T10:21:17.957Z,28.71
2018-07-04T10:22:17.874Z,28.69
2018-07-04T10:23:17.873Z,28.72
2018-07-04T10:24:17.744Z,28.69
2018-07-04T10:25:17.783Z,28.80
2018-07-04T10:26:17.612Z,28.80
2018-07-04T10:27:17.594Z,28.72
2018-07-04T10:28:17.483Z,28.51
2018-07-04T10:29:17.504Z,28.56
2018-07-04T10:30:17.354Z,28.57
2018-07-04T10:31:17.315Z,28.59
2018-07-04T10:32:17.232Z,28.68
2018-07-04T10:33:17.224Z,28.72
2018-07-04T10:34:17.141Z,28.72
2018-07-04T10:35:17.135Z,28.80
2018-07-04T10:36:16.965Z,28.93
2018-07-04T10:37:16.946Z,28.88
2018-07-04T10:38:16.836Z,28.93
2018-07-04T10:39:16.856Z,29.06
2018-07-04T10:40:16.706Z,29.03
2018-07-04T10:41:16.665Z,29.06
2018-07-04T10:42:16.584Z,28.98
2018-07-04T10:43:16.573Z,29.03
2018-07-04T10:44:16.450Z,29.06
2018-07-04T10:45:18.434Z,29.01
2018-07-04T10:46:16.320Z,29.06
2018-07-04T10:47:17.322Z,29.06
2018-07-04T10:48:16.195Z,29.04
2018-07-04T10:49:17.232Z,29.13
2018-07-04T10:50:16.065Z,29.18
2018-07-04T10:51:17.041Z,29.23
2018-07-04T10:52:15.935Z,29.26
2018-07-04T10:53:15.926Z,29.36
2018-07-04T10:54:15.802Z,29.44
2018-07-04T10:55:15.837Z,29.34
2018-07-04T10:56:15.673Z,29.26
2018-07-04T10:57:15.648Z,29.18
2018-07-04T10:58:15.549Z,29.09
2018-07-04T10:59:15.557Z,29.18
2018-07-04T11:00:15.424Z,29.16
2018-07-04T11:01:15.495Z,29.16
2018-07-04T11:02:15.287Z,29.04
2018-07-04T11:03:15.286Z,29.09
2018-07-04T11:04:15.158Z,29.03
2018-07-04T11:05:15.192Z,29.04
2018-07-04T11:06:15.029Z,28.98
2018-07-04T11:07:14.994Z,29.06
2018-07-04T11:08:14.930Z,29.04
2018-07-04T11:09:14.909Z,29.04
2018-07-04T11:10:14.777Z,29.13
2018-07-04T11:11:14.818Z,29.13
2018-07-04T11:12:14.655Z,29.09
2018-07-04T11:13:14.623Z,29.13
2018-07-04T11:14:14.517Z,29.18
2018-07-04T11:15:14.537Z,29.26
2018-07-04T11:16:14.388Z,29.31
2018-07-04T11:17:14.344Z,29.31
2018-07-04T11:18:14.262Z,29.41
2018-07-04T11:19:14.257Z,29.50
2018-07-04T11:20:14.134Z,29.66
2018-07-04T11:21:14.174Z,29.77
2018-07-04T11:22:14.049Z,29.81
2018-07-04T11:23:13.975Z,29.80
2018-07-04T11:24:13.878Z,29.65
2018-07-04T11:25:13.887Z,29.65
2018-07-04T11:26:13.751Z,29.63
2018-07-04T11:27:13.797Z,29.62
2018-07-04T11:28:13.628Z,29.73
2018-07-04T11:29:13.606Z,29.95
2018-07-04T11:30:13.494Z,29.92
2018-07-04T11:31:13.516Z,30.19
2018-07-04T11:32:13.369Z,30.24
2018-07-04T11:33:13.326Z,30.37
2018-07-04T11:34:13.240Z,30.44
2018-07-04T11:35:13.236Z,30.50
2018-07-04T11:36:13.114Z,30.48
2018-07-04T11:37:13.149Z,30.46
2018-07-04T11:38:12.986Z,30.57
2018-07-04T11:39:12.956Z,30.53
2018-07-04T11:40:12.862Z,30.30
2018-07-04T11:41:12.867Z,30.11
2018-07-04T11:42:12.734Z,30.05
2018-07-04T11:43:12.779Z,29.99
2018-07-04T11:44:12.610Z,30.10
2018-07-04T11:45:12.587Z,30.22
2018-07-04T11:46:12.480Z,30.37
2018-07-04T11:47:12.502Z,30.44
2018-07-04T11:48:12.369Z,30.50
2018-07-04T11:49:12.308Z,30.55
2018-07-04T11:50:12.227Z,30.71
2018-07-04T11:51:12.216Z,30.67
2018-07-04T11:52:12.100Z,30.65
2018-07-04T11:53:12.140Z,30.78
2018-07-04T11:54:11.977Z,30.77
2018-07-04T11:55:11.939Z,30.79
2018-07-04T11:56:11.852Z,30.92
2018-07-04T11:57:11.848Z,30.97
2018-07-04T11:58:11.724Z,30.99
2018-07-04T11:59:11.757Z,31.12
2018-07-04T12:00:11.597Z,31.14
2018-07-04T12:01:11.576Z,31.24
2018-07-04T12:02:11.473Z,31.42
2018-07-04T12:03:11.478Z,31.41
2018-07-04T12:04:11.353Z,31.27
2018-07-04T12:05:11.390Z,31.31
2018-07-04T12:06:11.220Z,31.30
2018-07-04T12:07:11.198Z,30.83
2018-07-04T12:08:11.094Z,30.72
2018-07-04T12:09:11.110Z,30.56
2018-07-04T12:10:10.968Z,30.56
2018-07-04T12:11:11.021Z,30.52
2018-07-04T12:12:10.841Z,30.60
2018-07-04T12:13:10.829Z,30.56
2018-07-04T12:14:10.712Z,30.70
2018-07-04T12:15:10.740Z,30.75
2018-07-04T12:16:10.590Z,30.85
2018-07-04T12:17:10.550Z,30.92
2018-07-04T12:18:10.468Z,31.05
2018-07-04T12:19:10.459Z,31.11
2018-07-04T12:20:10.340Z,31.15
2018-07-04T12:21:10.373Z,31.30
2018-07-04T12:22:10.212Z,31.39
2018-07-04T12:23:10.179Z,31.38
2018-07-04T12:24:10.090Z,31.45
2018-07-04T12:25:10.090Z,31.29
2018-07-04T12:26:09.965Z,31.36
2018-07-04T12:27:10.003Z,31.39
2018-07-04T12:28:09.843Z,31.48
2018-07-04T12:29:09.810Z,31.41
2018-07-04T12:30:09.714Z,31.55
2018-07-04T12:31:09.724Z,31.51
2018-07-04T12:32:09.592Z,31.52
2018-07-04T12:33:09.631Z,31.53
2018-07-04T12:34:09.460Z,31.63
2018-07-04T12:35:09.441Z,31.64
2018-07-04T12:36:09.340Z,31.60
2018-07-04T12:37:09.398Z,31.75
2018-07-04T12:38:09.221Z,31.78
2018-07-04T12:39:09.266Z,31.52
2018-07-04T12:40:09.091Z,31.39
2018-07-04T12:41:09.069Z,31.29
2018-07-04T12:42:08.968Z,31.14
2018-07-04T12:43:08.984Z,31.16
2018-07-04T12:44:08.882Z,31.24
2018-07-04T12:45:08.896Z,31.26
2018-07-04T12:46:08.714Z,31.30
2018-07-04T12:47:08.777Z,31.24
2018-07-04T12:48:08.593Z,31.51
2018-07-04T12:49:08.614Z,31.39
2018-07-04T12:50:08.468Z,31.53
2018-07-04T12:51:08.455Z,31.51